createdAt,value
2018-07-28T00:03:29.553Z,51.40
2018-07-28T00:08:34.522Z,51.60
2018-07-28T00:18:44.503Z,52.10
2018-07-28T00:23:52.953Z,52.10
2018-07-28T00:29:00.554Z,52.30
2018-07-28T00:34:04.952Z,52.40
2018-07-28T00:39:13.434Z,52.70
2018-07-28T00:44:16.905Z,52.90
2018-07-28T00:49:22.502Z,53.30
2018-07-28T00:54:25.660Z,53.40
2018-07-28T00:59:29.628Z,53.60
2018-07-28T01:04:34.613Z,53.80
2018-07-28T01:09:40.798Z,53.80
2018-07-28T01:19:48.003Z,54.20
2018-07-28T01:24:51.848Z,54.40
2018-07-28T01:29:58.294Z,54.60
2018-07-28T01:35:05.357Z,54.90
2018-07-28T01:40:09.631Z,55.10
2018-07-28T01:45:14.395Z,55.30
2018-07-28T01:50:24.085Z,55.50
2018-07-28T01:55:27.337Z,55.80
2018-07-28T02:00:30.348Z,56.10
2018-07-28T02:05:37.068Z,56.50
2018-07-28T02:10:40.404Z,56.70
2018-07-28T02:15:44.531Z,56.40
2018-07-28T02:20:48.405Z,56.70
2018-07-28T02:25:51.899Z,57.10
2018-07-28T02:30:56.241Z,57.40
2018-07-28T02:36:00.134Z,57.80
2018-07-28T02:41:03.161Z,58.00
2018-07-28T02:46:07.094Z,58.30
2018-07-28T02:51:10.385Z,58.40
2018-07-28T02:56:14.577Z,58.60
2018-07-28T03:01:17.907Z,59.00
2018-07-28T03:06:21.132Z,59.20
2018-07-28T03:11:26.982Z,59.40
2018-07-28T03:16:31.433Z,60.10
2018-07-28T03:21:36.481Z,59.50
2018-07-28T03:26:40.576Z,59.50
2018-07-28T03:31:43.739Z,59.70
2018-07-28T03:36:46.873Z,59.80
2018-07-28T03:41:49.961Z,59.90
2018-07-28T03:46:53.228Z,60.00
2018-07-28T03:51:56.621Z,60.20
2018-07-28T03:56:59.716Z,60.30
2018-07-28T04:02:02.805Z,60.40
2018-07-28T04:12:09.756Z,60.50
2018-07-28T04:17:13.497Z,60.50
2018-07-28T04:22:18.680Z,60.70
2018-07-28T04:27:22.638Z,60.90
2018-07-28T04:32:26.290Z,60.80
2018-07-28T04:37:29.390Z,61.00
2018-07-28T04:42:33.890Z,61.00
2018-07-28T04:47:39.858Z,60.90
2018-07-28T04:52:44.018Z,60.60
2018-07-28T04:57:49.706Z,60.20
2018-07-28T05:02:57.001Z,59.90
2018-07-28T05:08:02.170Z,59.40
2018-07-28T05:13:05.637Z,59.00
2018-07-28T05:18:13.458Z,58.80
2018-07-28T05:23:20.410Z,58.40
2018-07-28T05:28:23.729Z,58.00
2018-07-28T05:33:28.720Z,57.80
2018-07-28T05:38:34.862Z,57.40
2018-07-28T05:43:38.948Z,57.40
2018-07-28T05:53:46.779Z,57.20
2018-07-28T05:58:52.876Z,55.70
2018-07-28T06:08:59.602Z,54.20
2018-07-28T06:14:02.806Z,53.40
2018-07-28T06:19:06.347Z,53.60
2018-07-28T06:24:09.883Z,53.30
2018-07-28T06:29:13.005Z,53.20
2018-07-28T06:34:16.113Z,52.60
2018-07-28T06:39:20.065Z,52.40
2018-07-28T06:44:27.246Z,52.50
2018-07-28T06:49:31.918Z,52.30
2018-07-28T06:54:35.056Z,51.00
2018-07-28T06:59:38.189Z,50.80
2018-07-28T07:04:41.339Z,50.50
2018-07-28T07:15:14.385Z,49.40
2018-07-28T07:20:18.468Z,49.20
2018-07-28T07:25:25.195Z,49.00
2018-07-28T07:30:31.494Z,48.70
2018-07-28T07:35:36.913Z,47.90
2018-07-28T07:40:49.292Z,47.50
2018-07-28T07:51:39.546Z,46.50
2018-07-28T08:18:22.334Z,44.70
2018-07-28T08:23:29.024Z,44.50
2018-07-28T08:28:35.277Z,44.30
2018-07-28T08:33:42.591Z,43.80
2018-07-28T08:38:53.065Z,43.40
2018-07-28T08:44:00.459Z,42.90
2018-07-28T08:49:05.936Z,42.80
2018-07-28T08:54:09.449Z,42.60
2018-07-28T09:04:37.778Z,41.80
2018-07-28T09:09:41.146Z,41.60
2018-07-28T09:14:46.604Z,42.10
2018-07-28T09:19:49.861Z,41.70
2018-07-28T09:24:53.733Z,41.40
2018-07-28T09:29:58.989Z,40.60
2018-07-28T09:35:05.007Z,41.60
2018-07-28T09:40:09.274Z,41.20
2018-07-28T09:45:12.297Z,41.80
2018-07-28T09:50:19.744Z,41.60
2018-07-28T09:55:23.940Z,41.40
2018-07-28T10:00:37.877Z,41.20
2018-07-28T10:05:45.485Z,40.70
2018-07-28T10:10:50.177Z,40.60
2018-07-28T10:15:57.294Z,40.90
2018-07-28T10:21:01.173Z,41.10
2018-07-28T10:26:06.198Z,41.70
2018-07-28T10:31:11.172Z,42.50
2018-07-28T10:36:14.509Z,43.40
2018-07-28T10:41:18.412Z,43.50
2018-07-28T10:46:28.025Z,44.30
2018-07-28T10:51:31.493Z,44.70
2018-07-28T10:56:35.746Z,45.10
2018-07-28T11:01:45.625Z,45.70
2018-07-28T11:06:48.704Z,45.60
2018-07-28T11:11:56.951Z,45.80
2018-07-28T11:17:00.314Z,45.30
2018-07-28T11:22:03.752Z,46.20
2018-07-28T11:27:06.933Z,45.90
2018-07-28T11:32:21.539Z,45.40
2018-07-28T11:37:36.518Z,45.00
2018-07-28T11:42:52.315Z,45.40
2018-07-28T11:47:55.616Z,46.20
2018-07-28T11:53:00.490Z,46.60
2018-07-28T12:13:55.282Z,49.00
2018-07-28T12:18:58.379Z,49.40
2018-07-28T12:24:03.394Z,49.90
2018-07-28T12:29:07.455Z,49.80
2018-07-28T12:34:14.703Z,49.70
2018-07-28T12:39:22.536Z,49.40
2018-07-28T13:05:30.786Z,49.10
2018-07-28T13:10:35.162Z,48.90
2018-07-28T13:15:39.149Z,49.00
2018-07-28T13:20:46.014Z,49.10
2018-07-28T13:31:18.723Z,49.60
2018-07-28T13:36:22.803Z,49.40
2018-07-28T13:41:26.098Z,49.50
2018-07-28T13:50:07.544Z,49.60
2018-07-28T14:00:50.663Z,48.50
2018-07-28T14:05:55.724Z,49.10
2018-07-28T14:11:05.681Z,48.90
2018-07-28T14:16:11.102Z,48.60
2018-07-28T14:21:16.943Z,48.50
2018-07-28T14:26:22.220Z,48.40
2018-07-28T14:31:38.945Z,47.50
2018-07-28T14:42:17.125Z,46.10
2018-07-28T14:52:57.876Z,44.80
2018-07-28T14:58:08.974Z,45.30
2018-07-28T15:08:21.733Z,45.30
2018-07-28T15:13:29.197Z,45.00
2018-07-28T15:18:38.320Z,44.90
2018-07-28T15:23:42.117Z,44.50
2018-07-28T15:28:55.794Z,44.30
2018-07-28T15:34:00.793Z,43.80
2018-07-28T15:39:08.689Z,44.50
2018-07-28T15:44:13.547Z,43.70
2018-07-28T15:49:17.636Z,43.40
2018-07-28T15:54:25.996Z,43.00
2018-07-28T15:59:34.029Z,43.10
2018-07-28T16:04:39.156Z,42.80
2018-07-28T16:09:43.681Z,43.00
2018-07-28T16:14:52.612Z,43.60
2018-07-28T16:20:20.838Z,43.40
2018-07-28T16:25:53.279Z,43.40
2018-07-28T16:31:33.472Z,43.80
2018-07-28T16:37:00.675Z,43.40
2018-07-28T16:42:25.863Z,44.20
2018-07-28T16:47:36.937Z,44.00
2018-07-28T16:58:04.666Z,43.30
2018-07-28T17:03:10.419Z,44.50
2018-07-28T17:13:42.784Z,44.10
2018-07-28T17:18:51.198Z,44.20
2018-07-28T17:23:58.246Z,43.40
2018-07-28T17:34:10.982Z,44.50
2018-07-28T17:39:36.953Z,44.80
2018-07-28T17:44:49.805Z,45.50
2018-07-28T17:50:04.710Z,47.20
2018-07-28T18:00:43.170Z,49.70
2018-07-28T18:05:52.806Z,50.40
2018-07-28T18:10:56.523Z,51.50
2018-07-28T20:37:04.289Z,67.00
2018-07-28T20:42:08.545Z,68.20
2018-07-28T20:47:11.626Z,69.10
2018-07-28T20:52:15.182Z,69.40
2018-07-28T20:57:22.504Z,69.50
2018-07-28T21:02:34.023Z,69.30
2018-07-28T21:07:37.177Z,69.30
2018-07-28T21:12:42.007Z,69.00
2018-07-28T21:17:52.772Z,68.90
2018-07-28T21:22:56.858Z,68.80
2018-07-28T21:33:35.270Z,68.90
2018-07-28T21:38:56.605Z,68.70
2018-07-28T22:09:56.294Z,69.30
2018-07-28T22:25:55.901Z,68.20
2018-07-28T22:58:25.081Z,67.50
2018-07-28T23:25:33.820Z,69.00
2018-07-28T23:30:53.549Z,70.50
